Campanya meteocatpedra

Dades EMA Sant Llorenç Savall

?
?
Resum diari 20:30 TU
Dades diàries de l'estació meteorològica
Temperatura mitjana 22.5 °C
Temperatura màxima 30.2 °C 13:33 TU
Temperatura mínima 15.4 °C 5:10 TU
Humitat relativa mitjana 74%
Precipitació acumulada 0.0 mm
Ratxa màxima del vent (10 m) 23.0 km/h - 235º 13:53 TU

El tram horari està expressat en Temps Universal (TU). Cal sumar una hora en horari d'hivern i dues en horari d'estiu per passar a l'hora oficial.

Sant Llorenç Savall

Metadades estació meteorol´gica
Municipi Sant Llorenç Savall
Comarca Vallès Occidental
Altitud 528 m
Data alta 25.03.1998
Estat actual Operativa
Dades de període
Període
TU
TM
°C
TX
°C
TN
°C
HRM
%
PPT
mm
VVM (10 m)
km/h
DVM (10 m)
graus
VVX (10 m)
km/h
00:00 - 00:30 16.9 17.3 16.5 95 0.0 1.1 76 3.2
00:30 - 01:00 16.1 16.4 15.8 97 0.0 0.7 89 3.2
01:00 - 01:30 15.7 15.8 15.5 98 0.0 1.1 80 4.7
01:30 - 02:00 15.7 15.9 15.5 98 0.0 0.0 107 1.8
02:00 - 02:30 16.8 17.4 16.0 99 0.0 0.4 73 2.9
02:30 - 03:00 17.7 17.9 17.4 98 0.0 2.2 77 6.8
03:00 - 03:30 17.4 17.9 16.8 98 0.0 2.2 77 6.5
03:30 - 04:00 16.5 16.8 16.1 98 0.0 0.4 86 3.2
04:00 - 04:30 15.8 16.0 15.6 99 0.0 0.7 84 4.7
04:30 - 05:00 15.5 15.6 15.4 99 0.0 0.7 87 5.0
05:00 - 05:30 15.5 15.7 15.4 99 0.0 0.4 85 1.8
05:30 - 06:00 16.3 16.8 15.7 99 0.0 0.4 77 2.5
06:00 - 06:30 17.2 17.5 16.8 98 0.0 0.0 75 1.4
06:30 - 07:00 18.1 19.0 17.5 95 0.0 0.4 242 2.9
07:00 - 07:30 20.4 22.3 19.1 86 0.0 0.7 241 3.6
07:30 - 08:00 23.7 24.6 22.5 72 0.0 3.2 228 7.6
08:00 - 08:30 24.8 25.4 24.0 65 0.0 3.2 197 8.6
08:30 - 09:00 24.6 25.4 24.4 65 0.0 2.9 159 11.5
09:00 - 09:30 25.4 25.6 25.1 62 0.0 2.9 187 9.4
09:30 - 10:00 26.2 27.0 25.6 58 0.0 3.2 175 9.0
10:00 - 10:30 26.9 27.3 26.3 56 0.0 3.6 154 12.2
10:30 - 11:00 27.3 27.7 27.0 56 0.0 4.3 197 11.5
11:00 - 11:30 27.9 28.2 27.7 54 0.0 4.3 151 15.5
11:30 - 12:00 28.5 28.7 28.3 51 0.0 5.4 217 15.1
12:00 - 12:30 29.1 29.7 28.2 49 0.0 4.3 180 14.0
12:30 - 13:00 29.6 30.1 29.0 46 0.0 5.4 145 15.5
13:00 - 13:30 29.7 30.0 29.4 47 0.0 5.8 135 19.4
13:30 - 14:00 29.8 30.2 29.6 48 0.0 5.8 177 23.0
14:00 - 14:30 29.5 30.1 29.0 50 0.0 6.1 183 19.1
14:30 - 15:00 29.4 29.8 29.0 51 0.0 5.0 171 15.8
15:00 - 15:30 29.2 29.4 28.9 52 0.0 5.0 159 18.4
15:30 - 16:00 28.7 29.2 27.7 54 0.0 5.0 189 16.6
16:00 - 16:30 26.5 27.6 25.7 60 0.0 5.4 175 18.0
16:30 - 17:00 25.3 26.0 25.0 63 0.0 4.3 179 12.2
17:00 - 17:30 25.2 25.7 24.4 63 0.0 4.7 183 15.1
17:30 - 18:00 23.9 24.4 23.4 68 0.0 4.0 198 12.6
18:00 - 18:30 23.0 23.4 22.6 72 0.0 3.6 225 10.1
18:30 - 19:00 22.2 22.6 21.9 75 0.0 2.2 238 10.4
19:00 - 19:30 21.7 21.9 21.5 76 0.0 2.5 241 8.6
19:30 - 20:00 20.8 21.6 20.0 78 0.0 0.7 97 3.2
20:00 - 20:30 19.4 19.9 19.1 81 0.0 1.4 94 5.4
20:30 - 21:00 18.9 19.1 18.6 81 0.0 2.2 78 5.0
21:00 - 21:30 18.3 18.6 18.0 83 0.0 1.8 76 5.0

Les dades en taronja només han passat un control de qualitat automàtic. Resta pendent la seva validació definitiva.